createdAt,value
2023-02-06T00:01:03.621Z,-2.57
2023-02-06T00:06:03.940Z,-2.12
2023-02-06T00:11:08.063Z,-2.01
2023-02-06T00:16:24.673Z,-1.89
2023-02-06T00:21:29.354Z,-1.88
2023-02-06T00:26:38.301Z,-1.80
2023-02-06T00:31:39.931Z,-2.16
2023-02-06T00:36:48.582Z,-1.76
2023-02-06T00:42:12.812Z,-1.86
2023-02-06T00:47:12.611Z,-2.29
2023-02-06T00:52:16.670Z,-1.77
2023-02-06T00:57:21.107Z,-1.43
2023-02-06T01:02:24.161Z,-1.84
2023-02-06T01:07:23.598Z,-1.86
2023-02-06T01:12:24.253Z,-1.56
2023-02-06T01:17:25.763Z,-1.84
2023-02-06T01:22:24.342Z,-1.73
2023-02-06T01:27:22.484Z,-1.46
2023-02-06T01:32:25.444Z,-1.51
2023-02-06T01:37:24.319Z,-1.58
2023-02-06T01:42:23.397Z,-1.62
2023-02-06T01:47:22.640Z,-1.38
2023-02-06T01:52:33.181Z,-1.69
2023-02-06T01:57:33.198Z,-1.78
2023-02-06T02:02:32.612Z,-1.98
2023-02-06T02:07:41.698Z,-1.52
2023-02-06T02:12:40.669Z,-1.47
2023-02-06T02:17:56.132Z,-1.52
2023-02-06T02:23:01.403Z,-1.40
2023-02-06T02:28:25.121Z,-1.89
2023-02-06T02:33:37.864Z,-1.55
2023-02-06T02:38:48.185Z,-1.34
2023-02-06T02:44:09.254Z,-1.52
2023-02-06T02:49:17.199Z,-1.47
2023-02-06T02:54:20.685Z,-1.26
2023-02-06T02:59:25.277Z,-1.45
2023-02-06T03:04:44.804Z,-1.25
2023-02-06T03:09:47.427Z,-1.00
2023-02-06T03:15:30.995Z,-1.20
2023-02-06T03:20:31.563Z,-1.12
2023-02-06T03:25:37.023Z,-0.75
2023-02-06T03:30:37.202Z,-0.70
2023-02-06T03:35:37.140Z,-0.90
2023-02-06T03:40:36.636Z,-1.03
2023-02-06T03:45:40.646Z,-0.90
2023-02-06T03:50:40.953Z,-0.90
2023-02-06T03:55:39.645Z,-0.66
2023-02-06T04:00:38.732Z,-0.73
2023-02-06T04:05:38.760Z,-0.47
2023-02-06T04:10:39.117Z,-0.93
2023-02-06T04:15:38.593Z,-0.53
2023-02-06T04:20:41.466Z,-0.56
2023-02-06T04:25:40.778Z,-0.69
2023-02-06T04:30:39.135Z,-0.73
2023-02-06T04:35:37.171Z,-0.46
2023-02-06T04:40:35.622Z,-0.55
2023-02-06T04:45:35.080Z,-0.74
2023-02-06T04:50:34.509Z,-0.19
2023-02-06T04:55:32.262Z,-0.51
2023-02-06T05:00:33.718Z,-0.64
2023-02-06T05:05:32.162Z,-0.60
2023-02-06T05:10:42.132Z,-0.59
2023-02-06T05:15:40.809Z,-0.09
2023-02-06T05:20:38.514Z,-0.49
2023-02-06T05:25:37.110Z,-0.50
2023-02-06T05:30:37.222Z,-0.40
2023-02-06T05:35:35.404Z,-0.38
2023-02-06T05:40:33.987Z,-0.28
2023-02-06T05:45:34.522Z,-0.51
2023-02-06T05:50:33.592Z,-0.81
2023-02-06T05:55:32.503Z,-0.47
2023-02-06T06:00:35.530Z,-0.34
2023-02-06T06:05:34.034Z,-0.43
2023-02-06T06:10:32.506Z,-0.44
2023-02-06T06:15:31.000Z,-0.53
2023-02-06T06:20:29.274Z,-0.80
2023-02-06T06:25:29.096Z,-0.49
2023-02-06T06:30:27.794Z,-0.39
2023-02-06T06:35:26.248Z,-0.35
2023-02-06T06:40:24.591Z,-0.77
2023-02-06T06:45:23.085Z,-0.51
2023-02-06T06:50:20.703Z,-0.06
2023-02-06T06:55:19.689Z,-0.29
2023-02-06T07:00:17.913Z,-0.03
2023-02-06T07:05:19.083Z,0.08
2023-02-06T07:10:16.605Z,0.34
2023-02-06T07:15:14.898Z,0.46
2023-02-06T07:20:12.454Z,0.53
2023-02-06T07:25:11.733Z,0.52
2023-02-06T07:30:11.350Z,0.69
2023-02-06T07:35:10.468Z,0.36
2023-02-06T07:40:21.429Z,0.37
2023-02-06T07:45:19.953Z,0.95
2023-02-06T07:50:18.491Z,0.63
2023-02-06T07:55:17.262Z,0.76
2023-02-06T08:00:15.761Z,0.91
2023-02-06T08:05:14.123Z,0.57
2023-02-06T08:10:12.264Z,0.62
2023-02-06T08:15:10.785Z,1.07
2023-02-06T08:20:10.682Z,0.72
2023-02-06T08:25:09.742Z,0.43
2023-02-06T08:30:18.666Z,0.11
2023-02-06T08:35:16.879Z,-0.16
2023-02-06T08:40:15.264Z,-0.02
2023-02-06T08:45:13.794Z,0.36
2023-02-06T08:50:23.391Z,0.65
2023-02-06T08:55:25.203Z,0.87
2023-02-06T09:00:24.168Z,0.64
2023-02-06T09:05:22.375Z,0.58
2023-02-06T09:10:27.545Z,1.04
2023-02-06T09:15:26.192Z,0.75
2023-02-06T09:20:26.947Z,0.79
2023-02-06T09:25:25.051Z,0.92
2023-02-06T09:30:22.589Z,0.99
2023-02-06T09:35:20.383Z,1.26
2023-02-06T09:40:21.791Z,1.77
2023-02-06T09:45:22.824Z,1.48
2023-02-06T09:50:31.246Z,0.55
2023-02-06T09:55:32.098Z,0.42
2023-02-06T10:00:59.810Z,0.33
2023-02-06T10:06:19.524Z,0.08
2023-02-06T10:11:27.236Z,-0.07
2023-02-06T10:16:33.297Z,0.25
2023-02-06T10:21:42.872Z,0.49
2023-02-06T10:26:41.280Z,0.50
2023-02-06T10:31:50.830Z,0.32
2023-02-06T10:37:20.019Z,0.40
2023-02-06T10:42:29.488Z,0.52
2023-02-06T10:47:39.998Z,0.26
2023-02-06T10:52:39.398Z,0.59
2023-02-06T10:57:37.386Z,0.32
2023-02-06T11:02:55.337Z,0.54
2023-02-06T11:08:14.530Z,0.84
2023-02-06T11:13:33.900Z,0.50
2023-02-06T11:18:43.814Z,0.43
2023-02-06T11:23:42.324Z,0.69
2023-02-06T11:28:49.606Z,0.91
2023-02-06T11:33:54.825Z,0.50
2023-02-06T11:39:01.016Z,0.62
2023-02-06T11:44:06.681Z,0.59
2023-02-06T11:49:24.945Z,0.74
2023-02-06T11:54:28.604Z,1.18
2023-02-06T11:59:27.220Z,0.75
2023-02-06T12:04:40.841Z,0.83
2023-02-06T12:09:38.915Z,0.97
2023-02-06T12:14:40.638Z,0.96
2023-02-06T12:19:46.718Z,0.87
2023-02-06T12:24:49.493Z,1.22
2023-02-06T12:29:54.234Z,0.82
2023-02-06T12:34:54.547Z,0.99
2023-02-06T12:39:53.352Z,0.83
2023-02-06T12:44:58.288Z,1.10
2023-02-06T12:50:04.775Z,1.48
2023-02-06T12:55:36.386Z,1.29
2023-02-06T13:00:40.870Z,1.35
2023-02-06T13:05:47.284Z,1.04
2023-02-06T13:10:46.502Z,1.23
2023-02-06T13:15:55.501Z,1.44
2023-02-06T13:21:24.801Z,1.57
2023-02-06T13:26:44.338Z,1.36
2023-02-06T13:31:44.677Z,1.18
2023-02-06T13:36:51.298Z,0.83
2023-02-06T13:41:50.040Z,1.33
2023-02-06T13:47:14.866Z,1.38
2023-02-06T13:52:27.384Z,1.50
2023-02-06T13:57:34.964Z,1.35
2023-02-06T14:02:39.605Z,1.47
2023-02-06T14:07:50.594Z,0.94
2023-02-06T14:13:15.249Z,1.26
2023-02-06T14:18:28.699Z,1.27
2023-02-06T14:23:36.315Z,1.15
2023-02-06T14:28:49.793Z,1.15
2023-02-06T14:34:12.972Z,0.62
2023-02-06T14:39:33.114Z,0.74
2023-02-06T14:44:31.279Z,0.58
2023-02-06T14:49:36.900Z,0.89
2023-02-06T14:54:41.790Z,0.81
2023-02-06T14:59:51.685Z,0.89
2023-02-06T15:04:50.724Z,0.78
2023-02-06T15:10:12.519Z,0.89
2023-02-06T15:15:20.401Z,0.89
2023-02-06T15:20:20.909Z,1.56
2023-02-06T15:25:18.889Z,1.40
2023-02-06T15:30:22.436Z,0.80
2023-02-06T15:35:23.853Z,0.71
2023-02-06T15:40:26.575Z,0.85
2023-02-06T15:45:30.420Z,0.75
2023-02-06T15:50:31.440Z,0.73
2023-02-06T15:55:41.911Z,0.83
2023-02-06T16:00:39.942Z,0.93
2023-02-06T16:05:41.985Z,0.68
2023-02-06T16:10:40.484Z,0.78
2023-02-06T16:15:40.235Z,0.34
2023-02-06T16:20:41.180Z,0.60
2023-02-06T16:25:38.731Z,0.76
2023-02-06T16:30:37.568Z,0.52
2023-02-06T16:35:36.350Z,0.63
2023-02-06T16:40:36.047Z,0.85
2023-02-06T16:45:34.614Z,0.76
2023-02-06T16:50:36.821Z,0.63
2023-02-06T16:55:34.613Z,0.53
2023-02-06T17:00:33.023Z,0.58
2023-02-06T17:05:37.445Z,0.49
2023-02-06T17:10:35.131Z,0.62
2023-02-06T17:15:33.946Z,0.79
2023-02-06T17:20:37.518Z,0.90
2023-02-06T17:25:39.423Z,0.75
2023-02-06T17:30:40.617Z,0.41
2023-02-06T17:35:41.280Z,0.29
2023-02-06T17:40:41.029Z,0.47
2023-02-06T17:45:41.549Z,0.81
2023-02-06T17:50:43.781Z,0.45
2023-02-06T17:55:42.804Z,0.55
2023-02-06T18:00:44.619Z,0.30
2023-02-06T18:05:47.444Z,0.56
2023-02-06T18:10:46.288Z,0.50
2023-02-06T18:15:57.021Z,0.64
2023-02-06T18:20:55.775Z,0.65
2023-02-06T18:26:01.417Z,0.51
2023-02-06T18:31:02.667Z,0.53
2023-02-06T18:36:10.845Z,0.39
2023-02-06T18:41:33.515Z,0.64
2023-02-06T18:46:35.228Z,0.58
2023-02-06T18:51:44.089Z,0.55
2023-02-06T18:56:49.687Z,0.48
2023-02-06T19:01:50.770Z,0.67
2023-02-06T19:06:49.616Z,0.74
2023-02-06T19:11:50.573Z,0.51
2023-02-06T19:16:52.883Z,0.83
2023-02-06T19:21:58.155Z,0.80
2023-02-06T19:27:00.784Z,0.77
2023-02-06T19:32:03.142Z,1.03
2023-02-06T19:37:04.762Z,0.72
2023-02-06T19:42:07.612Z,0.52
2023-02-06T19:47:06.570Z,0.52
2023-02-06T19:52:04.603Z,0.54
2023-02-06T19:57:05.604Z,0.86
2023-02-06T20:02:03.601Z,1.03
2023-02-06T20:07:01.571Z,0.81
2023-02-06T20:12:01.009Z,0.73
2023-02-06T20:16:59.049Z,0.96
2023-02-06T20:21:58.918Z,1.08
2023-02-06T20:27:00.190Z,1.03
2023-02-06T20:31:59.886Z,0.93
2023-02-06T20:37:02.683Z,0.80
2023-02-06T20:42:02.348Z,0.65
2023-02-06T20:47:03.399Z,0.62
2023-02-06T20:52:03.467Z,0.61
2023-02-06T20:57:07.807Z,0.21
2023-02-06T21:02:12.422Z,0.36
2023-02-06T21:07:16.203Z,0.49
2023-02-06T21:12:17.999Z,-0.22
2023-02-06T21:17:18.112Z,-0.21
2023-02-06T21:22:19.321Z,0.26
2023-02-06T21:27:21.453Z,-0.24
2023-02-06T21:32:21.126Z,-0.42
2023-02-06T21:37:25.116Z,0.39
2023-02-06T21:42:26.423Z,0.10
2023-02-06T21:47:24.363Z,0.31
2023-02-06T21:52:25.462Z,-0.03
2023-02-06T21:57:32.389Z,-0.16
2023-02-06T22:02:38.190Z,0.11
2023-02-06T22:07:39.692Z,0.27
2023-02-06T22:12:41.593Z,0.09
2023-02-06T22:17:50.656Z,0.31
2023-02-06T22:23:14.321Z,0.15
2023-02-06T22:28:24.582Z,0.65
2023-02-06T22:33:26.634Z,-0.05
2023-02-06T22:38:31.170Z,0.52
2023-02-06T22:43:38.600Z,0.17
2023-02-06T22:48:36.687Z,0.29
2023-02-06T22:53:36.040Z,0.50
2023-02-06T22:58:35.116Z,0.82
2023-02-06T23:03:32.524Z,0.16
2023-02-06T23:08:33.580Z,0.35
2023-02-06T23:13:35.129Z,0.32
2023-02-06T23:18:36.318Z,0.58
2023-02-06T23:23:37.968Z,0.27
2023-02-06T23:28:36.891Z,0.12
2023-02-06T23:33:39.109Z,0.11
2023-02-06T23:38:38.555Z,0.15
2023-02-06T23:43:38.527Z,0.36
2023-02-06T23:48:38.034Z,0.20
2023-02-06T23:53:36.117Z,0.34
2023-02-06T23:58:34.853Z,0.30
